Time;durP1;ratioP1;P1;durP2;ratioP2;P2;SDS_P1;SDS_P2;PMS_P1;PMS_P2;Temp;Humidity;BMP_temperature;BMP_pressure;BME280_temperature;BME280_humidity;BME280_pressure;Samples;Min_cycle;Max_cycle;Signal;HPM_P1;HPM_P2
2022/09/27 00:00:34;;;;;;;;;;;;;;;9.13;100.00;98688.16;5046502;28;19924;-87
2022/09/27 00:03:07;;;;;;;;;;;;;;;9.10;100.00;98682.53;5051586;28;19932;-86
2022/09/27 00:05:35;;;;;;;;;;;;;;;9.10;100.00;98672.50;5052280;28;19932;-86
2022/09/27 00:08:08;;;;;;;;;;;;;;;9.09;100.00;98676.31;5075320;28;19920;-85
2022/09/27 00:10:42;;;;;;;;;;;;;;;9.11;100.00;98679.50;5053299;28;19920;-85
2022/09/27 00:13:15;;;;;;;;;;;;;;;9.08;100.00;98674.72;5062854;28;21699;-84
2022/09/27 00:15:55;;;;;;;;;;;;;;;9.06;100.00;98676.16;5053539;28;19925;-85
2022/09/27 00:18:23;;;;;;;;;;;;;;;9.10;100.00;98660.84;5057619;28;19940;-85
2022/09/27 00:20:56;;;;;;;;;;;;;;;9.14;100.00;98662.59;5088459;28;19925;-85
2022/09/27 00:23:29;;;;;;;;;;;;;;;9.10;100.00;98672.50;5056136;28;19921;-86
2022/09/27 00:26:05;;;;;;;;;;;;;;;9.11;100.00;98668.66;5063760;28;19921;-85
2022/09/27 00:28:38;;;;;;;;;;;;;;;9.12;100.00;98664.03;5067503;28;19925;-86
2022/09/27 00:31:11;;;;;;;;;;;;;;;9.11;100.00;98657.81;5073210;28;19925;-86
2022/09/27 00:33:44;;;;;;;;;;;;;;;9.14;100.00;98657.19;5066500;28;20571;-85
2022/09/27 00:36:18;;;;;;;;;;;;;;;9.19;100.00;98651.56;5093906;28;19920;-85
2022/09/27 00:38:52;;;;;;;;;;;;;;;9.14;100.00;98650.94;5052820;28;20365;-86
2022/09/27 00:41:27;;;;;;;;;;;;;;;9.17;100.00;98663.88;5044574;28;19925;-83
2022/09/27 00:43:56;;;;;;;;;;;;;;;9.17;100.00;98653.03;5051591;28;19924;-84
2022/09/27 00:46:27;;;;;;;;;;;;;;;9.12;100.00;98647.75;5075408;28;20350;-86
2022/09/27 00:49:04;;;;;;;;;;;;;;;9.13;100.00;98641.22;5055076;28;19920;-86
2022/09/27 00:51:39;;;;;;;;;;;;;;;9.16;100.00;98637.88;5052592;28;19924;-86
2022/09/27 00:54:13;;;;;;;;;;;;;;;9.09;100.00;98632.13;5046212;28;19928;-85
2022/09/27 00:56:49;;;;;;;;;;;;;;;9.12;100.00;98634.97;5048415;28;19936;-86
2022/09/27 00:59:20;;;;;;;;;;;;;;;9.17;100.00;98634.03;5046961;28;19932;-85
2022/09/27 01:01:53;;;;;;;;;;;;;;;9.17;100.00;98636.75;5057202;28;19927;-85
2022/09/27 01:04:27;;;;;;;;;;;;;;;9.20;100.00;98627.97;5050692;28;19948;-85
2022/09/27 01:07:00;;;;;;;;;;;;;;;9.21;100.00;98626.03;5058182;28;19992;-85
2022/09/27 01:09:34;;;;;;;;;;;;;;;9.22;100.00;98620.28;5048702;28;19920;-84
2022/09/27 01:12:12;;;;;;;;;;;;;;;9.18;100.00;98619.34;5049692;28;19920;-85
2022/09/27 01:14:52;;;;;;;;;;;;;;;9.18;100.00;98612.00;5073344;28;19921;-84
2022/09/27 01:17:30;;;;;;;;;;;;;;;9.17;100.00;98610.41;5040785;28;19925;-85
2022/09/27 01:20:12;;;;;;;;;;;;;;;9.17;100.00;98612.31;5053548;28;19936;-85
2022/09/27 01:22:54;;;;;;;;;;;;;;;9.16;100.00;98610.72;5069868;28;19921;-85
2022/09/27 01:25:33;;;;;;;;;;;;;;;9.15;100.00;98609.13;5050718;28;19921;-85
2022/09/27 01:28:19;;;;;;;;;;;;;;;9.16;100.00;98608.81;5060270;28;19924;-85
2022/09/27 01:31:00;;;;;;;;;;;;;;;9.17;100.00;98604.97;5073669;28;20297;-85
2022/09/27 01:33:41;;;;;;;;;;;;;;;9.20;100.00;98600.81;5048553;28;19921;-85
2022/09/27 01:36:19;;;;;;;;;;;;;;;9.19;100.00;98600.00;5047736;28;19924;-84
2022/09/27 01:38:58;;;;;;;;;;;;;;;9.16;100.00;98603.38;5045298;28;19921;-84
2022/09/27 01:41:48;;;;;;;;;;;;;;;9.16;100.00;98600.66;5046315;28;20285;-83
2022/09/27 01:44:38;;;;;;;;;;;;;;;9.11;100.00;98589.19;5069918;28;19925;-84
2022/09/27 01:47:20;;;;;;;;;;;;;;;9.11;100.00;98592.66;5038440;28;19944;-84
2022/09/27 01:50:01;;;;;;;;;;;;;;;9.10;100.00;98591.09;5041317;28;19937;-85
2022/09/27 01:52:39;;;;;;;;;;;;;;;9.11;100.00;98581.81;5041377;28;19928;-84
2022/09/27 01:55:15;;;;;;;;;;;;;;;9.16;100.00;98578.94;5034462;28;19920;-85
2022/09/27 01:58:13;;;;;;;;;;;;;;;9.13;100.00;98574.16;5038804;28;19925;-85
2022/09/27 02:00:50;;;;;;;;;;;;;;;9.12;100.00;98575.28;5074980;28;20290;-85
2022/09/27 02:03:27;;;;;;;;;;;;;;;9.12;100.00;98571.78;5050903;28;19925;-85
2022/09/27 02:06:35;;;;;;;;;;;;;;;9.11;100.00;98570.97;5035844;28;19943;-85
2022/09/27 02:09:24;;;;;;;;;;;;;;;9.19;100.00;98566.66;5057697;28;20374;-85
2022/09/27 02:12:21;;;;;;;;;;;;;;;9.12;100.00;98567.13;5051730;28;19925;-85
2022/09/27 02:14:58;;;;;;;;;;;;;;;9.13;100.00;98567.97;5055900;28;19943;-84
2022/09/27 02:17:37;;;;;;;;;;;;;;;9.12;100.00;98561.72;5049458;28;20289;-85
2022/09/27 02:20:15;;;;;;;;;;;;;;;9.10;100.00;98571.28;5054204;28;20396;-84
2022/09/27 02:22:55;;;;;;;;;;;;;;;9.13;100.00;98573.38;5049678;28;19920;-84
2022/09/27 02:25:30;;;;;;;;;;;;;;;9.16;100.00;98570.03;5079763;28;19993;-85
2022/09/27 02:28:09;;;;;;;;;;;;;;;9.10;100.00;98563.97;5041324;28;20386;-82
2022/09/27 02:30:42;;;;;;;;;;;;;;;9.17;100.00;98555.34;5033708;28;19928;-84
2022/09/27 02:33:29;;;;;;;;;;;;;;;9.18;100.00;98560.44;5042388;28;19925;-83
2022/09/27 02:36:04;;;;;;;;;;;;;;;9.15;100.00;98560.28;5054245;28;20365;-83
2022/09/27 02:38:37;;;;;;;;;;;;;;;9.13;100.00;98555.19;5049216;28;19932;-84
2022/09/27 02:41:14;;;;;;;;;;;;;;;9.13;100.00;98554.38;5059107;28;19925;-83
2022/09/27 02:43:43;;;;;;;;;;;;;;;9.17;100.00;98552.63;5037274;28;19936;-83
2022/09/27 02:46:24;;;;;;;;;;;;;;;9.14;100.00;98548.63;5045407;28;19932;-83
2022/09/27 02:49:03;;;;;;;;;;;;;;;9.15;100.00;98552.13;5050030;28;19928;-84
2022/09/27 02:51:43;;;;;;;;;;;;;;;9.16;100.00;98534.75;5064424;28;19931;-83
2022/09/27 02:54:19;;;;;;;;;;;;;;;9.13;100.00;98538.09;5043518;28;20282;-84
2022/09/27 02:57:23;;;;;;;;;;;;;;;9.18;100.00;98537.91;5045834;28;19925;-83
2022/09/27 03:00:14;;;;;;;;;;;;;;;9.18;100.00;98536.00;5077494;28;20285;-84
2022/09/27 03:03:05;;;;;;;;;;;;;;;9.11;100.00;98540.34;5044199;28;19932;-83
2022/09/27 03:05:46;;;;;;;;;;;;;;;9.18;100.00;98546.88;5066244;28;19921;-83
2022/09/27 03:08:21;;;;;;;;;;;;;;;9.22;100.00;98529.94;5053394;28;20396;-81
2022/09/27 03:10:54;;;;;;;;;;;;;;;9.25;100.00;98529.28;5041512;28;19921;-82
2022/09/27 03:13:27;;;;;;;;;;;;;;;9.21;100.00;98528.34;5045629;28;19929;-84
2022/09/27 03:16:01;;;;;;;;;;;;;;;9.21;100.00;98522.91;5078968;28;20273;-84
2022/09/27 03:19:01;;;;;;;;;;;;;;;9.17;100.00;98525.50;5079927;28;20369;-84
2022/09/27 03:21:54;;;;;;;;;;;;;;;9.15;100.00;98516.84;5040056;28;19921;-84
2022/09/27 03:24:28;;;;;;;;;;;;;;;9.20;100.00;98519.41;5055489;28;19925;-82
2022/09/27 03:27:02;;;;;;;;;;;;;;;9.21;100.00;98525.63;5050862;28;19924;-82
2022/09/27 03:29:35;;;;;;;;;;;;;;;9.21;100.00;98515.59;5056331;28;19944;-83
2022/09/27 03:32:09;;;;;;;;;;;;;;;9.21;100.00;98520.19;5052976;28;19924;-82
2022/09/27 03:34:52;;;;;;;;;;;;;;;9.23;100.00;98513.31;5066388;28;19928;-82
2022/09/27 03:37:28;;;;;;;;;;;;;;;9.24;100.00;98514.94;5078189;28;19925;-84
2022/09/27 03:40:02;;;;;;;;;;;;;;;9.21;100.00;98509.34;5042983;28;19925;-83
2022/09/27 03:42:35;;;;;;;;;;;;;;;9.18;100.00;98508.88;5073077;28;19921;-81
2022/09/27 03:45:08;;;;;;;;;;;;;;;9.22;100.00;98506.28;5062698;28;19920;-82
2022/09/27 03:47:41;;;;;;;;;;;;;;;9.27;100.00;98503.41;5051712;28;19955;-84
2022/09/27 03:50:14;;;;;;;;;;;;;;;9.20;100.00;98500.41;5050173;28;19920;-83
2022/09/27 03:52:47;;;;;;;;;;;;;;;9.14;100.00;98494.38;5047182;28;19925;-84
2022/09/27 03:55:22;;;;;;;;;;;;;;;9.18;100.00;98500.75;5051761;28;19932;-83
2022/09/27 03:57:50;;;;;;;;;;;;;;;9.23;100.00;98499.75;5059435;28;19925;-83
2022/09/27 04:00:24;;;;;;;;;;;;;;;9.24;100.00;98497.81;5051402;28;19928;-84
2022/09/27 04:02:57;;;;;;;;;;;;;;;9.21;100.00;98488.44;5064079;28;19925;-84
2022/09/27 04:06:10;;;;;;;;;;;;;;;9.27;100.00;98491.78;5031809;28;19921;-84
2022/09/27 04:08:42;;;;;;;;;;;;;;;9.25;100.00;98485.84;5048881;28;20274;-84
2022/09/27 04:11:16;;;;;;;;;;;;;;;-147.98;100.00;69253.78;5075115;28;19925;-82
2022/09/27 04:13:50;;;;;;;;;;;;;;;-147.98;100.00;69253.78;5058824;28;19999;-82
2022/09/27 04:16:23;;;;;;;;;;;;;;;-147.98;100.00;69253.78;5041719;28;19928;-83
2022/09/27 04:19:11;;;;;;;;;;;;;;;-147.98;100.00;69253.78;5046577;28;20460;-84
2022/09/27 04:21:47;;;;;;;;;;;;;;;-147.98;100.00;69253.78;5060443;28;19925;-84
2022/09/27 04:24:20;;;;;;;;;;;;;;;-147.98;100.00;69253.78;5043515;28;19925;-84
2022/09/27 04:27:16;;;;;;;;;;;;;;;-147.98;100.00;69253.78;5038781;28;19921;-84
2022/09/27 04:29:51;;;;;;;;;;;;;;;-147.98;100.00;69253.78;5055751;28;19925;-85
2022/09/27 04:32:47;;;;;;;;;;;;;;;-147.98;100.00;69253.78;5040666;28;19921;-86
2022/09/27 04:38:29;;;;;;;;;;;;;;;-147.98;100.00;69253.78;5047473;28;19928;-84
2022/09/27 04:41:02;;;;;;;;;;;;;;;-147.98;100.00;69253.78;5062754;28;19937;-83
2022/09/27 04:43:40;;;;;;;;;;;;;;;-147.98;100.00;69253.78;5058957;28;19920;-86
2022/09/27 04:46:13;;;;;;;;;;;;;;;-147.98;100.00;69253.78;5048081;28;19925;-84
2022/09/27 04:48:41;;;;;;;;;;;;;;;-147.98;100.00;69253.78;5028890;28;20574;-83
2022/09/27 04:51:16;;;;;;;;;;;;;;;-147.98;100.00;69253.78;5056028;28;19936;-82
2022/09/27 04:53:44;;;;;;;;;;;;;;;-147.98;100.00;69253.78;5035187;28;19933;-81
2022/09/27 04:56:17;;;;;;;;;;;;;;;-147.98;100.00;69253.78;5042878;28;19936;-84
2022/09/27 04:58:52;;;;;;;;;;;;;;;-147.98;100.00;69253.78;5024517;28;19937;-82
2022/09/27 05:01:21;;;;;;;;;;;;;;;-147.98;100.00;69253.78;5056100;28;20172;-83
2022/09/27 05:03:57;;;;;;;;;;;;;;;-147.98;100.00;69253.78;5028498;28;20403;-81
2022/09/27 05:06:26;;;;;;;;;;;;;;;-147.98;100.00;69253.78;5029561;28;20404;-80
2022/09/27 05:09:06;;;;;;;;;;;;;;;-147.98;100.00;69253.78;5016394;28;19929;-81
2022/09/27 05:11:54;;;;;;;;;;;;;;;-147.98;100.00;69253.78;5028617;28;19929;-81
2022/09/27 05:14:34;;;;;;;;;;;;;;;-147.98;100.00;69253.78;5019362;28;20409;-81
2022/09/27 05:17:30;;;;;;;;;;;;;;;-147.98;100.00;69253.78;5046853;28;19929;-82
2022/09/27 05:20:21;;;;;;;;;;;;;;;-147.98;100.00;69253.78;5030773;28;19928;-81
2022/09/27 05:23:10;;;;;;;;;;;;;;;-147.98;100.00;69253.78;5031326;28;19929;-83
2022/09/27 05:25:43;;;;;;;;;;;;;;;-147.98;100.00;69253.78;5016528;28;20259;-82
2022/09/27 05:28:16;;;;;;;;;;;;;;;-147.98;100.00;69253.78;5013134;28;19935;-80
2022/09/27 05:30:50;;;;;;;;;;;;;;;-147.98;100.00;69253.78;5051450;28;20526;-80
2022/09/27 05:33:23;;;;;;;;;;;;;;;-147.98;100.00;69253.78;5012464;28;19959;-81
2022/09/27 05:36:10;;;;;;;;;;;;;;;-147.98;100.00;69253.78;5012712;28;20357;-81
2022/09/27 05:38:44;;;;;;;;;;;;;;;-147.98;100.00;69253.78;5021202;28;19936;-83
2022/09/27 05:41:18;;;;;;;;;;;;;;;-147.98;100.00;69253.78;5024032;28;19929;-81
2022/09/27 05:43:51;;;;;;;;;;;;;;;-147.98;100.00;69253.78;5035527;28;19935;-80
2022/09/27 05:46:26;;;;;;;;;;;;;;;-147.98;100.00;69253.78;5036019;28;19929;-84
2022/09/27 05:48:59;;;;;;;;;;;;;;;-147.98;100.00;69253.78;5025291;28;19929;-80
2022/09/27 05:51:32;;;;;;;;;;;;;;;-147.98;100.00;69253.78;5021811;28;19928;-81
2022/09/27 05:54:05;;;;;;;;;;;;;;;-147.98;100.00;69253.78;5034716;28;20814;-82
2022/09/27 05:56:38;;;;;;;;;;;;;;;-147.98;100.00;69253.78;5032495;28;19928;-81
2022/09/27 05:59:14;;;;;;;;;;;;;;;-147.98;100.00;69253.78;5019101;28;20301;-81
2022/09/27 06:02:09;;;;;;;;;;;;;;;-147.98;100.00;69253.78;5030940;28;19929;-80
2022/09/27 06:05:02;;;;;;;;;;;;;;;-147.98;100.00;69253.78;5015819;28;19929;-80
2022/09/27 06:08:08;;;;;;;;;;;;;;;-147.98;100.00;69253.78;5016098;28;19932;-84
2022/09/27 06:10:42;;;;;;;;;;;;;;;-147.98;100.00;69253.78;5034758;28;20309;-84
2022/09/27 06:13:17;;;;;;;;;;;;;;;-147.98;100.00;69253.78;5030842;28;20314;-84
2022/09/27 06:15:52;;;;;;;;;;;;;;;-147.98;100.00;69253.78;5030243;28;19940;-81
2022/09/27 06:18:22;;;;;;;;;;;;;;;-147.98;100.00;69253.78;5032834;28;19928;-82
2022/09/27 06:20:55;;;;;;;;;;;;;;;-147.98;100.00;69253.78;5010314;28;19931;-80
2022/09/27 06:23:28;;;;;;;;;;;;;;;-147.98;100.00;69253.78;5011583;28;19935;-81
2022/09/27 06:26:17;;;;;;;;;;;;;;;-147.98;100.00;69253.78;5017785;28;20389;-82
2022/09/27 06:29:01;;;;;;;;;;;;;;;-147.98;100.00;69253.78;5023905;28;19924;-84
2022/09/27 06:31:35;;;;;;;;;;;;;;;-147.98;100.00;69253.78;5021270;28;19929;-84
2022/09/27 06:34:17;;;;;;;;;;;;;;;-147.98;100.00;69253.78;5022084;28;20183;-80
2022/09/27 06:36:50;;;;;;;;;;;;;;;-147.98;100.00;69253.78;5018568;28;19928;-82
2022/09/27 06:39:24;;;;;;;;;;;;;;;-147.98;100.00;69253.78;5044339;28;19936;-81
2022/09/27 06:42:12;;;;;;;;;;;;;;;-147.98;100.00;69253.78;5033291;28;19928;-81
2022/09/27 06:45:05;;;;;;;;;;;;;;;-147.98;100.00;69253.78;5013942;28;19929;-80
2022/09/27 06:48:01;;;;;;;;;;;;;;;-147.98;100.00;69253.78;5017456;28;19935;-82
2022/09/27 06:50:56;;;;;;;;;;;;;;;-147.98;100.00;69253.78;5034332;28;19936;-81
2022/09/27 06:53:31;;;;;;;;;;;;;;;-147.98;100.00;69253.78;5033507;28;19925;-80
2022/09/27 06:56:04;;;;;;;;;;;;;;;-147.98;100.00;69253.78;5023448;28;20168;-81
2022/09/27 07:01:41;;;;;;;;;;;;;;;-147.98;100.00;69253.78;5029257;28;20401;-81
2022/09/27 07:04:26;;;;;;;;;;;;;;;-147.98;100.00;69253.78;5033363;28;19929;-80
2022/09/27 07:07:06;;;;;;;;;;;;;;;-147.98;100.00;69253.78;5025075;28;19929;-81
2022/09/27 07:09:44;;;;;;;;;;;;;;;-147.98;100.00;69253.78;5016301;28;19936;-82
2022/09/27 07:12:22;;;;;;;;;;;;;;;-147.98;100.00;69253.78;5015141;28;19928;-81
2022/09/27 07:14:49;;;;;;;;;;;;;;;-147.98;100.00;69253.78;5033822;28;20424;-82
2022/09/27 07:17:22;;;;;;;;;;;;;;;-147.98;100.00;69253.78;5051599;28;20475;-81
2022/09/27 07:19:51;;;;;;;;;;;;;;;-147.98;100.00;69253.78;5006210;28;19935;-81
2022/09/27 07:22:21;;;;;;;;;;;;;;;-147.98;100.00;69253.78;5001903;28;19936;-81
2022/09/27 07:24:59;;;;;;;;;;;;;;;-147.98;100.00;69253.78;5013280;28;19948;-83
2022/09/27 07:27:33;;;;;;;;;;;;;;;-147.98;100.00;69253.78;5032329;28;20293;-80
2022/09/27 07:30:01;;;;;;;;;;;;;;;-147.98;100.00;69253.78;5021033;28;19939;-80
2022/09/27 07:32:35;;;;;;;;;;;;;;;-147.98;100.00;69253.78;5017268;28;20429;-82
2022/09/27 07:35:10;;;;;;;;;;;;;;;-147.98;100.00;69253.78;5006441;28;19928;-81
2022/09/27 07:37:45;;;;;;;;;;;;;;;-147.98;100.00;69253.78;5002896;28;19929;-83
2022/09/27 07:40:18;;;;;;;;;;;;;;;-147.98;100.00;69253.78;5056753;28;19929;-81
2022/09/27 07:42:54;;;;;;;;;;;;;;;-147.98;100.00;69253.78;5046774;28;19928;-80
2022/09/27 07:45:27;;;;;;;;;;;;;;;-147.98;100.00;69253.78;5018369;28;19920;-82
2022/09/27 07:48:13;;;;;;;;;;;;;;;-147.98;100.00;69253.78;5035582;28;19933;-80
2022/09/27 07:51:10;;;;;;;;;;;;;;;-147.98;100.00;69253.78;5014529;28;19929;-80
2022/09/27 07:53:51;;;;;;;;;;;;;;;-147.98;100.00;69253.78;5019306;28;19951;-80
2022/09/27 07:56:35;;;;;;;;;;;;;;;-147.98;100.00;69253.78;5001245;28;19925;-80
2022/09/27 07:59:11;;;;;;;;;;;;;;;-147.98;100.00;69253.78;5044293;28;19925;-81
2022/09/27 08:01:45;;;;;;;;;;;;;;;-147.98;100.00;69253.78;5019116;28;19971;-81
2022/09/27 08:04:13;;;;;;;;;;;;;;;-147.98;100.00;69253.78;5035334;28;20333;-82
2022/09/27 08:06:46;;;;;;;;;;;;;;;-147.98;100.00;69253.78;5017983;28;20452;-83
2022/09/27 08:09:21;;;;;;;;;;;;;;;-147.98;100.00;69253.78;5018835;28;19936;-81
2022/09/27 08:11:56;;;;;;;;;;;;;;;-147.98;100.00;69253.78;5048567;28;19928;-80
2022/09/27 08:14:24;;;;;;;;;;;;;;;-147.98;100.00;69253.78;5012149;28;19935;-81
2022/09/27 08:16:57;;;;;;;;;;;;;;;-147.98;100.00;69253.78;5033290;28;20305;-81
2022/09/27 08:19:37;;;;;;;;;;;;;;;-147.98;100.00;69253.78;5021087;28;19928;-80
2022/09/27 08:22:30;;;;;;;;;;;;;;;-147.98;100.00;69253.78;5018322;28;20727;-83
2022/09/27 08:25:05;;;;;;;;;;;;;;;-147.98;100.00;69253.78;5028114;28;19932;-84
2022/09/27 08:27:40;;;;;;;;;;;;;;;-147.98;100.00;69253.78;5022241;28;19928;-83
2022/09/27 08:30:19;;;;;;;;;;;;;;;-147.98;100.00;69253.78;5053267;28;20348;-81
2022/09/27 08:32:54;;;;;;;;;;;;;;;-147.98;100.00;69253.78;5044279;28;20416;-82
2022/09/27 08:35:28;;;;;;;;;;;;;;;-147.98;100.00;69253.78;5048643;28;20669;-84
2022/09/27 08:38:02;;;;;;;;;;;;;;;-147.98;100.00;69253.78;5019650;28;19935;-84
2022/09/27 08:40:44;;;;;;;;;;;;;;;-147.98;100.00;69253.78;5010200;28;19929;-82
2022/09/27 08:43:22;;;;;;;;;;;;;;;-147.98;100.00;69253.78;5015376;28;19979;-80
2022/09/27 08:46:00;;;;;;;;;;;;;;;-147.98;100.00;69253.78;5025890;28;19924;-81
2022/09/27 08:48:35;;;;;;;;;;;;;;;-147.98;100.00;69253.78;5026075;28;20003;-85
2022/09/27 08:51:11;;;;;;;;;;;;;;;-147.98;100.00;69253.78;5060474;28;20625;-81
2022/09/27 08:53:47;;;;;;;;;;;;;;;-147.98;100.00;69253.78;5033035;28;19925;-82
2022/09/27 08:56:23;;;;;;;;;;;;;;;-147.98;100.00;69253.78;5052952;28;19928;-81
2022/09/27 08:59:00;;;;;;;;;;;;;;;-147.98;100.00;69253.78;5020961;28;19936;-83
2022/09/27 09:01:35;;;;;;;;;;;;;;;-147.98;100.00;69253.78;5052229;28;19935;-81
2022/09/27 09:04:12;;;;;;;;;;;;;;;-147.98;100.00;69253.78;5025821;28;19935;-82
2022/09/27 09:06:51;;;;;;;;;;;;;;;-147.98;100.00;69253.78;5011033;28;19929;-81
2022/09/27 09:09:30;;;;;;;;;;;;;;;-147.98;100.00;69253.78;5028386;28;19928;-81
2022/09/27 09:15:20;;;;;;;;;;;;;;;-147.98;100.00;69253.78;5049042;28;19936;-83
2022/09/27 09:18:08;;;;;;;;;;;;;;;-147.98;100.00;69253.78;5016437;28;19935;-81
2022/09/27 09:21:12;;;;;;;;;;;;;;;-147.98;100.00;69253.78;5018908;28;20391;-82
2022/09/27 09:23:59;;;;;;;;;;;;;;;-147.98;100.00;69253.78;5019629;28;19939;-82
2022/09/27 09:26:32;;;;;;;;;;;;;;;-147.98;100.00;69253.78;5055216;28;19928;-81
2022/09/27 09:29:20;;;;;;;;;;;;;;;-147.98;100.00;69253.78;5018152;28;19929;-81
2022/09/27 09:31:57;;;;;;;;;;;;;;;-147.98;100.00;69253.78;5021042;28;20581;-80
2022/09/27 09:34:33;;;;;;;;;;;;;;;-147.98;100.00;69253.78;5024386;28;19929;-81
2022/09/27 09:37:03;;;;;;;;;;;;;;;-147.98;100.00;69253.78;5028201;28;19929;-83
2022/09/27 09:39:39;;;;;;;;;;;;;;;-147.98;100.00;69253.78;5023648;28;19924;-81
2022/09/27 09:42:14;;;;;;;;;;;;;;;-147.98;100.00;69253.78;5036046;28;19925;-81
2022/09/27 09:44:53;;;;;;;;;;;;;;;-147.98;100.00;69253.78;5052098;28;20381;-81
2022/09/27 09:47:29;;;;;;;;;;;;;;;-147.98;100.00;69253.78;5021088;28;19936;-82
2022/09/27 09:50:05;;;;;;;;;;;;;;;-147.98;100.00;69253.78;5036466;28;19928;-81
2022/09/27 09:52:42;;;;;;;;;;;;;;;-147.98;100.00;69253.78;5024787;28;19936;-81
2022/09/27 09:55:17;;;;;;;;;;;;;;;-147.98;100.00;69253.78;5025675;28;19929;-81
2022/09/27 09:57:59;;;;;;;;;;;;;;;-147.98;100.00;69253.78;5029583;28;19935;-83
2022/09/27 10:00:33;;;;;;;;;;;;;;;-147.98;100.00;69253.78;5054656;28;19936;-84
2022/09/27 10:03:06;;;;;;;;;;;;;;;-147.98;100.00;69253.78;5044954;28;19936;-81
2022/09/27 10:05:34;;;;;;;;;;;;;;;-147.98;100.00;69253.78;5021508;28;20324;-79
2022/09/27 10:08:13;;;;;;;;;;;;;;;-147.98;100.00;69253.78;5040172;28;19933;-79
2022/09/27 10:10:48;;;;;;;;;;;;;;;-147.98;100.00;69253.78;5018664;28;19928;-81
2022/09/27 10:13:43;;;;;;;;;;;;;;;-147.98;100.00;69253.78;5019653;28;19929;-80
2022/09/27 10:16:14;;;;;;;;;;;;;;;-147.98;100.00;69253.78;5053650;28;19935;-80
2022/09/27 10:18:47;;;;;;;;;;;;;;;-147.98;100.00;69253.78;5013581;28;19929;-80
2022/09/27 10:21:22;;;;;;;;;;;;;;;-147.98;100.00;69253.78;5028841;28;19929;-82
2022/09/27 10:24:03;;;;;;;;;;;;;;;-147.98;100.00;69253.78;5038907;28;19929;-83
2022/09/27 10:26:56;;;;;;;;;;;;;;;-147.98;100.00;69253.78;5011201;28;19925;-82
2022/09/27 10:29:33;;;;;;;;;;;;;;;-147.98;100.00;69253.78;5049028;28;20381;-81
2022/09/27 10:32:23;;;;;;;;;;;;;;;-147.98;100.00;69253.78;5032952;28;19929;-82
2022/09/27 10:35:20;;;;;;;;;;;;;;;-147.98;100.00;69253.78;5020553;28;20184;-79
2022/09/27 10:37:53;;;;;;;;;;;;;;;-147.98;100.00;69253.78;5035767;28;19928;-80
2022/09/27 10:40:30;;;;;;;;;;;;;;;-147.98;100.00;69253.78;5015858;28;19928;-81
2022/09/27 10:43:24;;;;;;;;;;;;;;;-147.98;100.00;69253.78;5048377;28;19936;-80
2022/09/27 10:46:15;;;;;;;;;;;;;;;-147.98;100.00;69253.78;5010617;28;19936;-83
2022/09/27 10:49:05;;;;;;;;;;;;;;;-147.98;100.00;69253.78;5008616;28;19929;-82
2022/09/27 10:51:35;;;;;;;;;;;;;;;-147.98;100.00;69253.78;5012316;28;20010;-81
2022/09/27 10:54:04;;;;;;;;;;;;;;;-147.98;100.00;69253.78;5036630;28;19928;-81
2022/09/27 10:56:38;;;;;;;;;;;;;;;-147.98;100.00;69253.78;4995945;28;20432;-83
2022/09/27 10:59:18;;;;;;;;;;;;;;;-147.98;100.00;69253.78;4998474;28;19924;-81
2022/09/27 11:01:48;;;;;;;;;;;;;;;-147.98;100.00;69253.78;4997802;28;19928;-79
2022/09/27 11:04:35;;;;;;;;;;;;;;;-147.98;100.00;69253.78;5014942;28;19929;-80
2022/09/27 11:07:12;;;;;;;;;;;;;;;-147.98;100.00;69253.78;5044161;28;19928;-80
2022/09/27 11:09:53;;;;;;;;;;;;;;;-147.98;100.00;69253.78;4999896;28;19929;-81
2022/09/27 11:12:24;;;;;;;;;;;;;;;-147.98;100.00;69253.78;5019908;28;20336;-80
2022/09/27 11:14:54;;;;;;;;;;;;;;;-147.98;100.00;69253.78;5016846;28;20393;-81
2022/09/27 11:17:34;;;;;;;;;;;;;;;-147.98;100.00;69253.78;5016828;28;20300;-84
2022/09/27 11:20:28;;;;;;;;;;;;;;;-147.98;100.00;69253.78;5049803;28;19932;-79
2022/09/27 11:23:16;;;;;;;;;;;;;;;-147.98;100.00;69253.78;5009678;28;20184;-80
2022/09/27 11:25:58;;;;;;;;;;;;;;;-147.98;100.00;69253.78;5008179;28;19929;-81
2022/09/27 11:28:33;;;;;;;;;;;;;;;-147.98;100.00;69253.78;5016526;28;19932;-82
2022/09/27 11:31:08;;;;;;;;;;;;;;;-147.98;100.00;69253.78;5013842;28;19929;-80
2022/09/27 11:34:05;;;;;;;;;;;;;;;-147.98;100.00;69253.78;5040938;28;19932;-79
2022/09/27 11:36:46;;;;;;;;;;;;;;;-147.98;100.00;69253.78;5011661;28;19928;-82
2022/09/27 11:39:23;;;;;;;;;;;;;;;-147.98;100.00;69253.78;5010334;28;19929;-79
2022/09/27 11:42:08;;;;;;;;;;;;;;;-147.98;100.00;69253.78;5031929;28;19931;-81
2022/09/27 11:44:54;;;;;;;;;;;;;;;-147.98;100.00;69253.78;5032419;28;19952;-82
2022/09/27 11:47:40;;;;;;;;;;;;;;;-147.98;100.00;69253.78;5022919;28;19935;-80
2022/09/27 11:50:20;;;;;;;;;;;;;;;-147.98;100.00;69253.78;5019960;28;19936;-79
2022/09/27 11:52:57;;;;;;;;;;;;;;;-147.98;100.00;69253.78;5014408;28;19940;-80
2022/09/27 11:55:33;;;;;;;;;;;;;;;-147.98;100.00;69253.78;5035043;28;20409;-82
2022/09/27 11:58:11;;;;;;;;;;;;;;;-147.98;100.00;69253.78;5045219;28;19929;-82
2022/09/27 12:00:55;;;;;;;;;;;;;;;-147.98;100.00;69253.78;5046826;28;19929;-82
2022/09/27 12:04:00;;;;;;;;;;;;;;;-147.98;100.00;69253.78;5013622;28;19940;-80
2022/09/27 12:06:40;;;;;;;;;;;;;;;-147.98;100.00;69253.78;5013817;28;19929;-81
2022/09/27 12:09:15;;;;;;;;;;;;;;;-147.98;100.00;69253.78;5048652;28;21490;-81
2022/09/27 12:11:51;;;;;;;;;;;;;;;-147.98;100.00;69253.78;5019870;28;19929;-82
2022/09/27 12:14:29;;;;;;;;;;;;;;;-147.98;100.00;69253.78;5022568;28;19928;-80
2022/09/27 12:17:03;;;;;;;;;;;;;;;-147.98;100.00;69253.78;5004151;28;19928;-80
2022/09/27 12:19:40;;;;;;;;;;;;;;;-147.98;100.00;69253.78;5046176;28;20573;-81
2022/09/27 12:22:21;;;;;;;;;;;;;;;-147.98;100.00;69253.78;5021992;28;19928;-82
2022/09/27 12:24:50;;;;;;;;;;;;;;;-147.98;100.00;69253.78;5018466;28;20348;-82
2022/09/27 12:27:37;;;;;;;;;;;;;;;-147.98;100.00;69253.78;5049466;28;19931;-82
2022/09/27 12:30:12;;;;;;;;;;;;;;;-147.98;100.00;69253.78;5010189;28;19928;-81
2022/09/27 12:32:50;;;;;;;;;;;;;;;-147.98;100.00;69253.78;5016990;28;19928;-83
2022/09/27 12:35:27;;;;;;;;;;;;;;;-147.98;100.00;69253.78;5002756;28;20121;-81
2022/09/27 12:38:03;;;;;;;;;;;;;;;-147.98;100.00;69253.78;5020731;28;19929;-80
2022/09/27 12:40:39;;;;;;;;;;;;;;;-147.98;100.00;69253.78;5020318;28;19928;-81
2022/09/27 12:43:17;;;;;;;;;;;;;;;-147.98;100.00;69253.78;5051602;28;20431;-81
2022/09/27 12:46:08;;;;;;;;;;;;;;;-147.98;100.00;69253.78;5051424;28;19929;-82
2022/09/27 12:48:44;;;;;;;;;;;;;;;-147.98;100.00;69253.78;5013609;28;19928;-82
2022/09/27 12:51:20;;;;;;;;;;;;;;;-147.98;100.00;69253.78;5015804;28;19929;-80
2022/09/27 12:54:13;;;;;;;;;;;;;;;-147.98;100.00;69253.78;5018901;28;19928;-81
2022/09/27 12:56:50;;;;;;;;;;;;;;;-147.98;100.00;69253.78;5000042;28;19940;-79
2022/09/27 12:59:34;;;;;;;;;;;;;;;-147.98;100.00;69253.78;5012405;28;20393;-81
2022/09/27 13:02:26;;;;;;;;;;;;;;;-147.98;100.00;69253.78;5015429;28;20289;-82
2022/09/27 13:05:17;;;;;;;;;;;;;;;-147.98;100.00;69253.78;5042206;28;21302;-79
2022/09/27 13:07:57;;;;;;;;;;;;;;;-147.98;100.00;69253.78;5046879;28;19929;-79
2022/09/27 13:10:46;;;;;;;;;;;;;;;-147.98;100.00;69253.78;5049479;28;19940;-82
2022/09/27 13:13:31;;;;;;;;;;;;;;;-147.98;100.00;69253.78;5019672;28;19932;-80
2022/09/27 13:16:06;;;;;;;;;;;;;;;-147.98;100.00;69253.78;5055013;28;19925;-79
2022/09/27 13:18:54;;;;;;;;;;;;;;;-147.98;100.00;69253.78;5015174;28;19928;-80
2022/09/27 13:21:41;;;;;;;;;;;;;;;-147.98;100.00;69253.78;5014307;28;19928;-79
2022/09/27 13:24:31;;;;;;;;;;;;;;;-147.98;100.00;69253.78;5030342;28;19935;-79
2022/09/27 13:27:28;;;;;;;;;;;;;;;-147.98;100.00;69253.78;5052737;28;19951;-80
2022/09/27 13:30:22;;;;;;;;;;;;;;;-147.98;100.00;69253.78;5025628;28;19929;-80
2022/09/27 13:33:15;;;;;;;;;;;;;;;-147.98;100.00;69253.78;5037329;28;20377;-83